Time;durP1;ratioP1;P1;durP2;ratioP2;P2;SDS_P1;SDS_P2;PMS_P1;PMS_P2;Temp;Humidity;BMP_temperature;BMP_pressure;BME280_temperature;BME280_humidity;BME280_pressure;Samples;Min_cycle;Max_cycle;Signal;HPM_P1;HPM_P2
2021/08/27 00:00:22;;;;;;;2.50;1.42;;;;;;;13.10;90.91;100067.16;5014636;28;20117;-77
2021/08/27 00:02:47;;;;;;;4.53;1.70;;;;;;;13.09;91.15;100075.13;5014533;28;20026;-78
2021/08/27 00:05:12;;;;;;;2.70;1.40;;;;;;;13.12;91.42;100073.25;5014307;28;20137;-78
2021/08/27 00:07:37;;;;;;;6.47;1.92;;;;;;;13.13;90.89;100068.84;5013183;28;20479;-77
2021/08/27 00:10:03;;;;;;;6.50;1.67;;;;;;;13.11;91.32;100071.53;5014509;28;20564;-78
2021/08/27 00:12:29;;;;;;;3.92;1.85;;;;;;;13.06;91.31;100076.06;5014319;28;20127;-78
2021/08/27 00:14:54;;;;;;;3.08;1.60;;;;;;;13.05;91.43;100078.78;5013128;28;20082;-77
2021/08/27 00:17:28;;;;;;;3.55;2.30;;;;;;;12.93;91.90;100074.59;5010270;28;20045;-78
2021/08/27 00:19:54;;;;;;;4.47;1.92;;;;;;;12.93;92.62;100077.25;5010275;28;20050;-78
2021/08/27 00:22:19;;;;;;;6.03;2.05;;;;;;;12.90;92.56;100077.34;5014239;28;20044;-77
2021/08/27 00:24:45;;;;;;;5.35;1.92;;;;;;;12.85;92.74;100076.56;5014293;28;20087;-77
2021/08/27 00:27:10;;;;;;;6.47;2.05;;;;;;;12.88;93.52;100073.84;5013961;28;20045;-77
2021/08/27 00:29:36;;;;;;;4.18;1.65;;;;;;;12.92;92.69;100065.78;5014067;28;20049;-77
2021/08/27 00:32:01;;;;;;;4.60;1.60;;;;;;;12.90;93.43;100077.34;5014270;28;20105;-77
2021/08/27 00:34:26;;;;;;;4.78;1.95;;;;;;;12.95;92.67;100075.44;4999140;28;20068;-77
2021/08/27 00:36:52;;;;;;;2.72;1.33;;;;;;;12.95;93.09;100072.81;5012413;28;20074;-77
2021/08/27 00:39:17;;;;;;;4.47;1.95;;;;;;;12.96;93.19;100071.88;5013925;28;20058;-77
2021/08/27 00:41:42;;;;;;;2.78;1.45;;;;;;;12.89;93.44;100065.88;5013882;28;20033;-76
2021/08/27 00:44:08;;;;;;;5.03;1.77;;;;;;;12.88;93.60;100066.75;5013289;28;20049;-78
2021/08/27 00:46:33;;;;;;;4.18;1.85;;;;;;;12.89;93.88;100067.63;5012341;28;20042;-77
2021/08/27 00:48:58;;;;;;;6.57;2.58;;;;;;;12.88;93.22;100068.53;5013713;28;20084;-77
2021/08/27 00:51:23;;;;;;;5.22;1.77;;;;;;;12.84;93.78;100070.41;5012129;28;20045;-77
2021/08/27 00:53:49;;;;;;;4.13;1.50;;;;;;;12.88;93.61;100074.72;5013638;28;20084;-77
2021/08/27 00:56:15;;;;;;;6.30;2.10;;;;;;;12.88;93.22;100066.75;5013454;28;20037;-76
2021/08/27 00:58:40;;;;;;;5.88;1.95;;;;;;;12.87;92.83;100070.31;5012371;28;20048;-76
2021/08/27 01:01:05;;;;;;;6.43;1.85;;;;;;;12.88;93.09;100073.84;5013499;28;20507;-77
2021/08/27 01:03:31;;;;;;;4.60;2.45;;;;;;;12.83;93.59;100076.59;5013553;28;20605;-76
2021/08/27 01:06:08;;;;;;;9.20;2.13;;;;;;;12.87;93.62;100078.28;5013128;28;20046;-76
2021/08/27 01:08:44;;;;;;;5.10;1.75;;;;;;;12.87;93.20;100069.47;5012125;28;20049;-77
2021/08/27 01:11:35;;;;;;;5.72;1.83;;;;;;;12.88;92.59;100073.84;5009856;28;20038;-77
2021/08/27 01:14:07;;;;;;;5.53;1.92;;;;;;;12.94;92.80;100076.34;5012235;28;20120;-77
2021/08/27 01:16:50;;;;;;;5.05;1.95;;;;;;;12.92;92.30;100080.81;5009246;28;20164;-77
2021/08/27 01:19:37;;;;;;;7.57;2.00;;;;;;;12.91;92.07;100079.06;5011485;28;20037;-77
2021/08/27 01:22:26;;;;;;;3.20;1.60;;;;;;;12.88;92.45;100079.13;5009924;28;20022;-78
2021/08/27 01:24:53;;;;;;;4.53;2.38;;;;;;;12.88;92.72;100079.13;5013255;28;20042;-77
2021/08/27 01:27:20;;;;;;;3.85;1.75;;;;;;;12.93;92.29;100078.13;5012872;28;20026;-77
2021/08/27 01:30:01;;;;;;;6.20;1.88;;;;;;;12.91;91.80;100079.06;5012976;28;20131;-78
2021/08/27 01:32:56;;;;;;;4.77;2.03;;;;;;;12.92;92.10;100076.41;5010136;28;20498;-77
2021/08/27 01:35:24;;;;;;;6.57;2.17;;;;;;;12.94;92.28;100081.63;4982130;28;20041;-77
2021/08/27 01:37:52;;;;;;;5.15;2.25;;;;;;;13.00;91.45;100078.88;5012882;28;20485;-76
2021/08/27 01:40:22;;;;;;;5.65;2.15;;;;;;;13.03;91.43;100086.75;5012647;28;20038;-77
2021/08/27 01:42:48;;;;;;;4.43;1.85;;;;;;;13.01;91.17;100080.59;5011437;28;20038;-77
2021/08/27 01:45:19;;;;;;;5.38;1.90;;;;;;;13.04;91.38;100080.53;5012398;28;20400;-77
2021/08/27 01:47:44;;;;;;;10.65;2.55;;;;;;;13.07;90.58;100083.13;5012699;28;20046;-77
2021/08/27 01:50:12;;;;;;;4.35;1.73;;;;;;;13.09;90.73;100078.63;5012693;28;20041;-76
2021/08/27 01:52:38;;;;;;;3.38;1.95;;;;;;;13.09;90.40;100083.94;5012487;28;20116;-78
2021/08/27 01:55:08;;;;;;;6.68;2.47;;;;;;;13.06;90.34;100080.50;5012321;28;20124;-77
2021/08/27 01:57:39;;;;;;;7.28;2.40;;;;;;;13.09;90.25;100086.59;5012475;28;20034;-77
2021/08/27 02:00:08;;;;;;;5.72;1.90;;;;;;;13.09;88.86;100091.00;5012500;28;20049;-78
2021/08/27 02:02:34;;;;;;;4.95;2.30;;;;;;;13.04;89.79;100085.81;5002298;28;20041;-78
2021/08/27 02:05:03;;;;;;;5.18;2.50;;;;;;;12.96;90.63;100090.44;5010924;28;20516;-78
2021/08/27 02:07:29;;;;;;;6.10;2.30;;;;;;;12.88;90.92;100090.59;5012178;28;20161;-77
2021/08/27 02:09:56;;;;;;;4.95;2.15;;;;;;;12.88;91.58;100077.34;5008203;28;20710;-77
2021/08/27 02:12:24;;;;;;;8.75;2.70;;;;;;;12.85;91.43;100080.06;5010921;28;20029;-76
2021/08/27 02:14:52;;;;;;;4.05;1.92;;;;;;;12.86;91.63;100083.59;5010948;28;20042;-77
2021/08/27 02:17:17;;;;;;;5.47;2.90;;;;;;;12.79;92.46;100077.59;5012021;28;20090;-76
2021/08/27 02:19:43;;;;;;;4.22;2.28;;;;;;;12.78;92.60;100078.47;5010873;28;20042;-76
2021/08/27 02:22:12;;;;;;;6.70;3.05;;;;;;;12.80;92.38;100081.97;5007956;28;20030;-77
2021/08/27 02:24:57;;;;;;;5.57;2.95;;;;;;;12.82;92.40;100079.28;5007035;28;20124;-77
2021/08/27 02:27:23;;;;;;;5.40;2.72;;;;;;;12.80;92.55;100079.31;5010211;28;20040;-76
2021/08/27 02:29:53;;;;;;;8.15;2.50;;;;;;;12.78;91.99;100080.25;5010709;28;20042;-78
2021/08/27 02:32:19;;;;;;;7.00;3.03;;;;;;;12.77;92.48;100082.03;5011986;28;20034;-76
2021/08/27 02:34:47;;;;;;;6.93;2.72;;;;;;;12.76;92.67;100080.31;5011511;28;20424;-77
2021/08/27 02:37:15;;;;;;;4.47;2.50;;;;;;;12.76;92.49;100075.00;5011371;28;20153;-77
2021/08/27 02:39:41;;;;;;;7.35;2.53;;;;;;;12.75;92.65;100075.03;5012220;28;20037;-77
2021/08/27 02:42:07;;;;;;;6.47;2.53;;;;;;;12.76;92.47;100077.66;5016547;28;20032;-78
2021/08/27 02:44:32;;;;;;;7.90;3.05;;;;;;;12.82;91.99;100080.16;5013450;28;20040;-77
2021/08/27 02:46:58;;;;;;;6.07;3.38;;;;;;;12.81;92.17;100078.44;5015755;28;20112;-77
2021/08/27 02:49:23;;;;;;;5.20;3.03;;;;;;;12.82;91.94;100076.63;5012346;28;20487;-77
2021/08/27 02:51:57;;;;;;;7.88;3.65;;;;;;;12.84;92.37;100073.06;5011638;28;20733;-77
2021/08/27 02:54:26;;;;;;;4.78;2.78;;;;;;;12.92;92.21;100070.22;5010499;28;20053;-77
2021/08/27 02:56:53;;;;;;;5.47;2.88;;;;;;;13.01;91.63;100074.44;5011560;28;20104;-77
2021/08/27 02:59:22;;;;;;;6.55;2.90;;;;;;;13.04;91.58;100074.34;5011442;28;20026;-77
2021/08/27 03:01:51;;;;;;;4.80;3.00;;;;;;;13.00;91.31;100076.22;5011533;28;20029;-77
2021/08/27 03:04:26;;;;;;;6.57;2.78;;;;;;;13.08;90.56;100068.97;5010378;28;20523;-77
2021/08/27 03:07:07;;;;;;;6.60;2.90;;;;;;;13.01;90.36;100070.00;5011139;28;20046;-77
2021/08/27 03:09:59;;;;;;;5.28;2.78;;;;;;;12.92;91.04;100067.59;5007818;28;20136;-78
2021/08/27 03:12:36;;;;;;;6.70;3.67;;;;;;;12.93;91.07;100071.97;5009656;28;20484;-77
2021/08/27 03:15:05;;;;;;;6.75;3.10;;;;;;;13.05;90.51;100065.53;5013888;28;20463;-78
2021/08/27 03:17:37;;;;;;;6.30;2.78;;;;;;;13.02;90.77;100066.47;5015744;28;20041;-77
2021/08/27 03:20:21;;;;;;;4.90;2.78;;;;;;;13.00;90.93;100062.09;5017916;28;20038;-78
2021/08/27 03:22:51;;;;;;;4.65;3.03;;;;;;;13.02;90.66;100065.56;5017722;28;20121;-77
2021/08/27 03:25:18;;;;;;;7.60;3.22;;;;;;;13.08;90.64;100058.34;5017203;28;20388;-78
2021/08/27 03:27:47;;;;;;;6.13;3.05;;;;;;;13.09;90.52;100052.13;5017813;28;20084;-77
2021/08/27 03:30:24;;;;;;;7.43;4.10;;;;;;;13.13;90.31;100053.81;5017806;28;20145;-77
2021/08/27 03:32:57;;;;;;;7.45;3.88;;;;;;;13.13;89.70;100058.25;5014827;28;20056;-77
2021/08/27 03:35:23;;;;;;;5.18;3.58;;;;;;;13.11;89.92;100054.78;5017526;28;20543;-77
2021/08/27 03:37:51;;;;;;;6.32;4.15;;;;;;;13.15;89.89;100057.31;5017690;28;20052;-77
2021/08/27 03:40:19;;;;;;;6.25;3.92;;;;;;;13.15;89.93;100051.13;5017688;28;20389;-77
2021/08/27 03:42:45;;;;;;;5.85;3.88;;;;;;;13.14;90.16;100050.25;5017646;28;20526;-77
2021/08/27 03:45:11;;;;;;;6.68;3.55;;;;;;;13.23;89.63;100056.22;5017494;28;20058;-76
2021/08/27 03:47:42;;;;;;;6.70;4.15;;;;;;;13.25;89.59;100051.78;5017659;28;20084;-77
2021/08/27 03:50:08;;;;;;;4.32;2.85;;;;;;;13.30;88.94;100053.44;5016841;28;20096;-77
2021/08/27 03:52:34;;;;;;;5.97;4.30;;;;;;;13.26;89.35;100054.44;5017053;28;20396;-76
2021/08/27 03:55:01;;;;;;;6.07;3.78;;;;;;;13.31;89.20;100051.66;5017427;28;20042;-77
2021/08/27 03:57:27;;;;;;;8.02;4.60;;;;;;;13.31;89.23;100056.97;5013171;28;20471;-77
2021/08/27 03:59:52;;;;;;;4.90;2.95;;;;;;;13.36;88.36;100052.41;5015911;28;20037;-77
2021/08/27 04:02:18;;;;;;;4.30;3.05;;;;;;;13.32;88.88;100056.91;5015871;28;20034;-77
2021/08/27 04:04:43;;;;;;;4.43;3.13;;;;;;;13.20;88.99;100049.22;5016997;28;20117;-77
2021/08/27 04:07:09;;;;;;;4.18;2.97;;;;;;;13.19;89.88;100052.78;5017184;28;20033;-78
2021/08/27 04:09:35;;;;;;;6.75;3.30;;;;;;;13.13;89.41;100045.88;5017382;28;20415;-77
2021/08/27 04:12:04;;;;;;;7.50;3.75;;;;;;;13.11;89.60;100055.63;5017614;28;20104;-78
2021/08/27 04:14:29;;;;;;;5.72;2.67;;;;;;;13.11;89.49;100060.06;5002007;28;20029;-77
2021/08/27 04:16:55;;;;;;;5.32;3.28;;;;;;;13.07;89.99;100058.38;5017385;28;20400;-77
2021/08/27 04:19:21;;;;;;;4.28;2.90;;;;;;;13.03;89.97;100054.09;5016966;28;20511;-76
2021/08/27 04:21:47;;;;;;;7.10;3.97;;;;;;;13.05;89.75;100061.09;5017317;28;20072;-80
2021/08/27 04:24:12;;;;;;;6.93;3.90;;;;;;;13.09;89.71;100054.78;5016976;28;20096;-76
2021/08/27 04:26:39;;;;;;;5.88;3.42;;;;;;;13.10;89.98;100055.69;5013244;28;20091;-77
2021/08/27 04:29:05;;;;;;;5.93;3.45;;;;;;;13.06;90.57;100049.56;5014208;28;20065;-76
2021/08/27 04:31:30;;;;;;;5.18;4.05;;;;;;;13.12;89.95;100056.50;5013949;28;20041;-76
2021/08/27 04:33:56;;;;;;;5.55;3.45;;;;;;;13.19;89.77;100052.78;5012753;28;20510;-76
2021/08/27 04:36:21;;;;;;;5.10;3.38;;;;;;;13.19;89.46;100051.94;5028636;28;20038;-75
2021/08/27 04:38:47;;;;;;;5.53;3.45;;;;;;;13.16;88.74;100050.22;5024033;28;20037;-76
2021/08/27 04:41:12;;;;;;;4.93;3.10;;;;;;;13.16;89.63;100053.75;5027891;28;20080;-77
2021/08/27 04:43:37;;;;;;;4.63;3.03;;;;;;;13.21;89.02;100055.44;5012964;28;20068;-77
2021/08/27 04:46:03;;;;;;;7.47;2.92;;;;;;;13.17;89.47;100049.31;5011972;28;20050;-77
2021/08/27 04:48:29;;;;;;;5.78;2.88;;;;;;;13.19;89.32;100052.78;5010676;28;20091;-77
2021/08/27 04:50:54;;;;;;;5.20;2.67;;;;;;;13.16;89.72;100059.03;5024997;28;20048;-77
2021/08/27 04:53:19;;;;;;;5.47;3.17;;;;;;;13.19;89.78;100051.94;5005491;28;20144;-77
2021/08/27 04:55:45;;;;;;;5.03;3.13;;;;;;;13.19;89.85;100058.09;5015516;28;20495;-78
2021/08/27 04:58:10;;;;;;;7.63;4.28;;;;;;;13.14;90.43;100060.84;5012997;28;20531;-77
2021/08/27 05:00:36;;;;;;;8.02;3.53;;;;;;;13.19;90.31;100057.22;5015669;28;20041;-77
2021/08/27 05:03:01;;;;;;;4.85;3.10;;;;;;;13.23;90.18;100058.88;5015245;28;20030;-77
2021/08/27 05:05:26;;;;;;;6.88;4.10;;;;;;;13.12;90.37;100062.66;5010640;28;20041;-77
2021/08/27 05:07:52;;;;;;;5.72;4.30;;;;;;;13.04;90.62;100069.91;5014931;28;20033;-77
2021/08/27 05:10:17;;;;;;;6.63;4.53;;;;;;;13.07;90.63;100064.56;5013914;28;20104;-77
2021/08/27 05:12:43;;;;;;;8.05;4.70;;;;;;;13.04;91.02;100064.63;5015158;28;20051;-77
2021/08/27 05:15:09;;;;;;;7.05;4.90;;;;;;;13.06;90.70;100061.94;5015146;28;20069;-77
2021/08/27 05:17:35;;;;;;;7.18;3.97;;;;;;;13.05;91.29;100069.03;5014451;28;20162;-77
2021/08/27 05:20:01;;;;;;;6.03;4.20;;;;;;;13.00;91.52;100062.09;5013414;28;20034;-77
2021/08/27 05:22:26;;;;;;;9.27;5.57;;;;;;;13.02;92.06;100055.88;4996589;28;20503;-77
2021/08/27 05:24:51;;;;;;;9.02;7.03;;;;;;;13.02;92.26;100068.22;5010342;28;20038;-77
2021/08/27 05:27:17;;;;;;;8.20;5.05;;;;;;;13.01;92.05;100054.09;5013388;28;20099;-77
2021/08/27 05:29:42;;;;;;;12.85;8.15;;;;;;;13.01;92.30;100054.09;5011623;28;20029;-76
2021/08/27 05:32:08;;;;;;;7.20;5.97;;;;;;;13.06;92.57;100054.00;5012861;28;20179;-76
2021/08/27 05:34:34;;;;;;;12.05;5.80;;;;;;;13.04;92.36;100056.69;5025106;28;20124;-76
2021/08/27 05:36:59;;;;;;;8.10;6.70;;;;;;;13.05;92.57;100065.53;5011784;28;20045;-77
2021/08/27 05:39:28;;;;;;;10.18;6.70;;;;;;;13.09;92.63;100059.22;5013584;28;20408;-77
2021/08/27 05:41:55;;;;;;;9.73;7.35;;;;;;;13.10;92.13;100064.50;5013078;28;20041;-77
2021/08/27 05:44:21;;;;;;;7.70;6.30;;;;;;;13.13;92.32;100064.41;5012879;28;20026;-77
2021/08/27 05:46:46;;;;;;;8.35;6.63;;;;;;;13.11;92.45;100052.97;5012822;28;20037;-77
2021/08/27 05:49:11;;;;;;;10.07;7.25;;;;;;;13.11;92.43;100057.41;5013904;28;20045;-76
2021/08/27 05:51:37;;;;;;;7.00;5.20;;;;;;;13.14;91.62;100060.84;5013286;28;20034;-77
2021/08/27 05:54:02;;;;;;;8.45;5.53;;;;;;;13.10;92.55;100053.91;5013134;28;20046;-77
2021/08/27 05:56:28;;;;;;;8.00;5.85;;;;;;;13.14;92.33;100055.56;5012350;28;20092;-77
2021/08/27 05:58:53;;;;;;;10.73;6.40;;;;;;;13.16;91.98;100064.34;5013063;28;20042;-77
2021/08/27 06:01:18;;;;;;;6.28;5.05;;;;;;;13.13;92.66;100056.47;5013783;28;20030;-77
2021/08/27 06:03:44;;;;;;;7.35;5.65;;;;;;;13.10;92.67;100059.19;5009873;28;20038;-77
2021/08/27 06:06:09;;;;;;;8.63;5.97;;;;;;;13.10;92.74;100059.19;5013869;28;20037;-77
2021/08/27 06:08:35;;;;;;;8.40;5.90;;;;;;;13.05;92.76;100055.78;5015199;28;20044;-77
2021/08/27 06:11:00;;;;;;;8.75;5.35;;;;;;;13.06;93.24;100062.81;5012900;28;20049;-76
2021/08/27 06:13:25;;;;;;;12.52;6.05;;;;;;;13.03;93.61;100062.91;5029409;28;20080;-77
2021/08/27 06:15:51;;;;;;;9.02;5.78;;;;;;;13.11;93.57;100060.94;5012944;28;20041;-77
2021/08/27 06:18:16;;;;;;;7.78;6.07;;;;;;;13.05;94.01;100061.09;5012142;28;20038;-76
2021/08/27 06:20:41;;;;;;;7.82;6.13;;;;;;;13.13;93.47;100059.13;5014616;28;20053;-77
2021/08/27 06:23:07;;;;;;;7.70;5.15;;;;;;;13.10;93.66;100056.56;5011062;28;20042;-77
2021/08/27 06:25:32;;;;;;;6.93;5.70;;;;;;;13.14;93.45;100058.19;5014624;28;20044;-77
2021/08/27 06:27:57;;;;;;;7.93;6.40;;;;;;;13.15;93.90;100052.00;5013771;28;20052;-77
2021/08/27 06:30:23;;;;;;;5.00;3.85;;;;;;;13.19;93.41;100051.94;5010130;28;20041;-77
2021/08/27 06:32:48;;;;;;;9.15;5.57;;;;;;;13.15;93.64;100054.66;5014199;28;20042;-77
2021/08/27 06:35:13;;;;;;;6.78;4.60;;;;;;;13.10;93.57;100053.91;5013604;28;20038;-78
2021/08/27 06:40:23;;;;;;;6.70;5.05;;;;;;;13.17;93.45;100054.59;5010674;28;20034;-77
2021/08/27 06:42:48;;;;;;;7.63;3.58;;;;;;;13.14;93.92;100057.34;5012693;28;20030;-77
2021/08/27 06:45:14;;;;;;;4.95;3.30;;;;;;;13.05;93.78;100058.44;5006270;28;20041;-78
2021/08/27 06:47:39;;;;;;;6.40;3.75;;;;;;;13.00;94.48;100059.47;5005780;28;20113;-77
2021/08/27 06:50:05;;;;;;;6.40;4.85;;;;;;;12.97;95.87;100057.75;5010844;28;20037;-77
2021/08/27 06:52:31;;;;;;;6.28;3.83;;;;;;;13.03;95.16;100062.03;5007128;28;20038;-77
2021/08/27 06:54:57;;;;;;;6.65;4.20;;;;;;;12.96;94.92;100056.00;5000499;28;20033;-77
2021/08/27 06:57:22;;;;;;;6.15;3.88;;;;;;;12.97;95.39;100051.56;4999036;28;20480;-77
2021/08/27 06:59:48;;;;;;;6.55;3.72;;;;;;;12.94;94.96;100057.78;5007603;28;20048;-76
2021/08/27 07:02:13;;;;;;;5.72;3.65;;;;;;;12.93;94.98;100056.06;5012702;28;20033;-77
2021/08/27 07:04:38;;;;;;;6.20;4.53;;;;;;;12.88;95.98;100064.13;5011887;28;20049;-77
2021/08/27 07:07:04;;;;;;;6.18;4.70;;;;;;;12.94;95.77;100063.09;5011744;28;20042;-77
2021/08/27 07:09:29;;;;;;;5.68;2.83;;;;;;;12.89;95.52;100049.97;5010756;28;20046;-77
2021/08/27 07:11:54;;;;;;;4.20;2.20;;;;;;;12.87;96.04;100066.81;5012122;28;20074;-77
2021/08/27 07:14:19;;;;;;;12.82;2.90;;;;;;;12.82;97.58;100066.03;5011800;28;20049;-76
2021/08/27 07:16:45;;;;;;;9.27;2.88;;;;;;;12.80;97.49;100070.50;5011468;28;20042;-77
2021/08/27 07:19:10;;;;;;;4.28;1.67;;;;;;;12.70;97.47;100069.81;5011688;28;20026;-76
2021/08/27 07:21:35;;;;;;;4.05;1.20;;;;;;;12.73;97.70;100069.75;5011397;28;20035;-78
2021/08/27 07:24:01;;;;;;;3.60;2.00;;;;;;;12.75;98.80;100067.09;5011843;28;20160;-77
2021/08/27 07:26:26;;;;;;;4.30;3.38;;;;;;;12.78;98.88;100061.72;5012126;28;20173;-77
2021/08/27 07:28:51;;;;;;;8.40;3.10;;;;;;;12.83;98.46;100073.94;5012294;28;20117;-77
2021/08/27 07:31:17;;;;;;;16.77;3.38;;;;;;;12.79;98.27;100068.78;5011417;28;20038;-77
2021/08/27 07:33:42;;;;;;;4.13;2.40;;;;;;;12.83;98.37;100075.72;5010486;28;20042;-76
2021/08/27 07:36:07;;;;;;;5.05;3.10;;;;;;;12.82;98.70;100071.34;5009572;28;20147;-78
2021/08/27 07:38:34;;;;;;;5.40;2.70;;;;;;;12.83;99.11;100076.59;5005958;28;20042;-77
2021/08/27 07:40:59;;;;;;;5.35;3.30;;;;;;;12.87;98.38;100075.63;5005250;28;20504;-77
2021/08/27 07:43:25;;;;;;;4.10;2.88;;;;;;;12.79;97.59;100100.56;5014165;28;20036;-77
2021/08/27 07:45:56;;;;;;;5.80;2.72;;;;;;;12.82;97.06;100081.94;5012022;28;20075;-78
2021/08/27 07:48:23;;;;;;;5.10;3.22;;;;;;;12.94;97.07;100079.00;5007571;28;20495;-78
2021/08/27 07:50:48;;;;;;;5.82;3.92;;;;;;;12.94;97.54;100074.59;5014193;28;20089;-77
2021/08/27 07:53:13;;;;;;;6.00;4.13;;;;;;;12.96;96.85;100079.84;5014764;28;20306;-77
2021/08/27 07:55:39;;;;;;;5.57;4.28;;;;;;;13.02;97.00;100079.72;5014408;28;20041;-77
2021/08/27 07:58:04;;;;;;;4.00;2.90;;;;;;;13.05;96.78;100079.63;5014070;28;20121;-78
2021/08/27 08:00:30;;;;;;;3.85;3.22;;;;;;;13.05;97.17;100081.41;5014649;28;20038;-78
2021/08/27 08:02:55;;;;;;;4.05;2.83;;;;;;;13.11;96.97;100087.41;5016747;28;20515;-77
2021/08/27 08:05:20;;;;;;;5.22;2.80;;;;;;;13.13;96.57;100085.63;5017666;28;20045;-77
2021/08/27 08:07:46;;;;;;;5.05;3.47;;;;;;;13.06;96.34;100081.34;5015132;28;20089;-77
2021/08/27 08:10:11;;;;;;;5.10;3.20;;;;;;;13.03;96.57;100083.22;5016419;28;20041;-76
2021/08/27 08:12:36;;;;;;;6.22;3.38;;;;;;;13.01;96.44;100090.31;5016379;28;20081;-77
2021/08/27 08:15:02;;;;;;;7.80;3.72;;;;;;;13.08;96.37;100082.19;5016755;28;20072;-76
2021/08/27 08:17:27;;;;;;;14.98;7.32;;;;;;;13.09;96.19;100083.94;5015165;28;20093;-77
2021/08/27 08:19:52;;;;;;;9.15;5.93;;;;;;;13.11;96.58;100076.81;5016353;28;20046;-77
2021/08/27 08:22:20;;;;;;;7.57;3.42;;;;;;;13.23;96.16;100082.72;5017431;28;20034;-78
2021/08/27 08:24:45;;;;;;;5.00;3.50;;;;;;;13.15;95.30;100089.09;5015375;28;20056;-77
2021/08/27 08:27:10;;;;;;;4.45;3.17;;;;;;;13.12;95.28;100089.16;5016133;28;20042;-78
2021/08/27 08:29:37;;;;;;;7.03;4.75;;;;;;;13.19;95.64;100084.59;5016805;28;20038;-77
2021/08/27 08:32:05;;;;;;;6.35;4.18;;;;;;;13.34;94.87;100083.41;5024254;28;20500;-77
2021/08/27 08:34:30;;;;;;;8.43;4.28;;;;;;;13.42;94.61;100089.38;5017713;28;20038;-78
2021/08/27 08:36:55;;;;;;;5.82;3.33;;;;;;;13.30;93.99;100092.31;5017471;28;20445;-77
2021/08/27 08:39:21;;;;;;;6.10;3.63;;;;;;;13.19;93.91;100089.91;5017971;28;20484;-78
2021/08/27 08:41:47;;;;;;;7.10;3.72;;;;;;;13.24;94.13;100087.13;5015626;28;20053;-77
2021/08/27 08:44:13;;;;;;;4.85;3.15;;;;;;;13.20;94.08;100080.16;5015971;28;20038;-77
2021/08/27 08:46:39;;;;;;;6.65;3.65;;;;;;;13.19;94.22;100083.72;5015382;28;20207;-77
2021/08/27 08:49:05;;;;;;;5.22;3.55;;;;;;;13.19;94.53;100078.44;5016531;28;20045;-78
2021/08/27 08:51:32;;;;;;;4.88;3.35;;;;;;;13.19;93.78;100075.78;5016384;28;20136;-77
2021/08/27 08:53:58;;;;;;;6.80;3.53;;;;;;;13.08;94.02;100074.25;5016409;28;20124;-76
2021/08/27 08:56:23;;;;;;;4.50;3.40;;;;;;;13.13;94.29;100090.91;5014933;28;20073;-77
2021/08/27 08:58:49;;;;;;;6.53;4.47;;;;;;;13.22;94.37;100087.16;5014877;28;20034;-77
2021/08/27 09:01:17;;;;;;;7.80;3.95;;;;;;;13.22;100.00;100086.31;5015868;28;20037;-77
2021/08/27 09:03:47;;;;;;;7.40;4.75;;;;;;;13.24;100.00;100081.84;5010035;28;20105;-77
2021/08/27 09:06:12;;;;;;;6.75;3.83;;;;;;;13.27;98.64;100081.78;5010975;28;20088;-76
2021/08/27 09:08:45;;;;;;;5.10;3.67;;;;;;;13.23;96.92;100074.78;5013671;28;20026;-77
2021/08/27 09:11:22;;;;;;;5.85;3.97;;;;;;;13.24;96.47;100081.84;5010549;28;20084;-77
2021/08/27 09:13:50;;;;;;;5.88;3.53;;;;;;;13.28;96.16;100083.53;4997141;28;20030;-77
2021/08/27 09:16:16;;;;;;;3.72;2.17;;;;;;;13.37;95.50;100083.31;5011592;28;20052;-77
2021/08/27 09:18:49;;;;;;;3.63;2.15;;;;;;;13.45;94.59;100072.53;5009489;28;20148;-77
2021/08/27 09:21:34;;;;;;;4.30;1.77;;;;;;;13.36;94.44;100081.56;5003674;28;20068;-77
2021/08/27 09:24:08;;;;;;;3.33;2.00;;;;;;;13.33;94.63;100081.63;5004426;28;20485;-76
2021/08/27 09:26:34;;;;;;;4.22;2.60;;;;;;;13.33;95.06;100076.34;5005953;28;20129;-77
2021/08/27 09:29:00;;;;;;;5.10;2.67;;;;;;;13.42;95.60;100085.84;5007500;28;20060;-77
2021/08/27 09:31:36;;;;;;;4.18;2.75;;;;;;;13.44;94.24;100084.91;5014079;28;20492;-77
2021/08/27 09:34:02;;;;;;;3.35;2.65;;;;;;;13.50;93.70;100089.19;4994946;28;20061;-77
2021/08/27 09:36:29;;;;;;;5.88;4.03;;;;;;;13.63;93.66;100079.13;5014154;28;20117;-78
2021/08/27 09:39:12;;;;;;;6.70;4.28;;;;;;;13.88;93.25;100077.56;5015070;28;20118;-77
2021/08/27 09:41:37;;;;;;;6.03;4.20;;;;;;;13.97;91.01;100079.97;5013788;28;20120;-77
2021/08/27 09:44:04;;;;;;;7.50;4.97;;;;;;;14.03;90.70;100089.53;5014571;28;20038;-77
2021/08/27 09:46:41;;;;;;;6.90;4.63;;;;;;;14.08;91.22;100092.09;5014788;28;20030;-77
2021/08/27 09:49:30;;;;;;;8.10;4.60;;;;;;;14.22;90.09;100092.56;5011138;28;20110;-77
2021/08/27 09:51:57;;;;;;;7.13;4.45;;;;;;;14.39;88.85;100086.78;5013604;28;20076;-77
2021/08/27 09:54:27;;;;;;;4.57;3.83;;;;;;;14.57;89.21;100085.41;5012394;28;20134;-80
2021/08/27 09:56:55;;;;;;;6.78;3.95;;;;;;;14.50;87.82;100083.81;5007050;28;20096;-77
2021/08/27 09:59:37;;;;;;;5.95;3.58;;;;;;;14.61;87.13;100082.59;5014312;28;20388;-77
2021/08/27 10:02:04;;;;;;;;;;;;;;;14.71;87.19;100077.03;5011984;28;20053;-78
2021/08/27 10:04:30;;;;;;;5.38;4.47;;;;;;;14.79;86.39;100085.63;5010702;28;19996;-77
2021/08/27 10:06:56;;;;;;;5.10;4.28;;;;;;;14.99;85.52;100082.38;5011329;28;20041;-77
2021/08/27 10:09:22;;;;;;;4.78;3.88;;;;;;;14.81;85.50;100089.09;5011027;28;20408;-77
2021/08/27 10:11:55;;;;;;;5.28;4.22;;;;;;;14.81;85.41;100082.00;5012515;28;20069;-77
2021/08/27 10:14:20;;;;;;;5.85;3.97;;;;;;;14.78;86.33;100090.06;5008828;28;20468;-76
2021/08/27 10:16:47;;;;;;;5.13;4.03;;;;;;;14.84;86.70;100075.72;5008474;28;20117;-77
2021/08/27 10:19:12;;;;;;;8.13;4.00;;;;;;;14.85;86.94;100080.97;5008872;28;20060;-77
2021/08/27 10:21:37;;;;;;;5.63;3.97;;;;;;;14.81;86.20;100079.34;5015751;28;20480;-76
2021/08/27 10:24:03;;;;;;;5.22;3.60;;;;;;;14.93;86.21;100078.09;5013025;28;20136;-77
2021/08/27 10:26:29;;;;;;;4.82;3.05;;;;;;;15.11;84.48;100082.81;5015265;28;20141;-77
2021/08/27 10:28:55;;;;;;;5.60;3.20;;;;;;;15.34;83.22;100075.91;5011077;28;20052;-77
2021/08/27 10:31:41;;;;;;;3.25;2.22;;;;;;;15.41;81.76;100076.56;5028261;28;20140;-77
2021/08/27 10:34:07;;;;;;;4.47;2.70;;;;;;;15.64;81.35;100070.44;5010734;28;20542;-77
2021/08/27 10:36:32;;;;;;;4.20;2.50;;;;;;;15.78;81.27;100071.75;5014555;28;20038;-77
2021/08/27 10:38:59;;;;;;;4.22;2.80;;;;;;;16.12;80.78;100069.69;5011279;28;20091;-78
2021/08/27 10:41:37;;;;;;;5.20;2.85;;;;;;;16.61;80.65;100070.50;5019872;28;20152;-77
2021/08/27 10:44:10;;;;;;;3.03;2.13;;;;;;;16.82;76.93;100071.50;4994966;28;20045;-77
2021/08/27 10:46:45;;;;;;;3.10;1.80;;;;;;;16.90;75.47;100064.09;5005685;28;20557;-77
2021/08/27 10:49:12;;;;;;;2.53;1.30;;;;;;;17.23;71.94;100074.31;4994601;28;20099;-76
2021/08/27 10:51:39;;;;;;;2.20;1.45;;;;;;;17.23;73.14;100069.84;5002130;28;20041;-75
2021/08/27 10:54:07;;;;;;;1.92;1.20;;;;;;;17.05;73.73;100070.59;5008247;28;20069;-77
2021/08/27 10:56:44;;;;;;;2.00;1.10;;;;;;;17.00;75.38;100076.13;5014185;28;20045;-77
2021/08/27 10:59:11;;;;;;;4.60;1.60;;;;;;;16.94;74.55;100065.69;4990452;28;20049;-79
2021/08/27 11:02:01;;;;;;;2.33;1.42;;;;;;;16.94;74.76;100065.69;5006369;28;20053;-79
2021/08/27 11:04:28;;;;;;;2.10;1.30;;;;;;;17.05;76.09;100068.78;5007172;28;20444;-79
2021/08/27 11:06:55;;;;;;;1.23;0.80;;;;;;;16.98;73.14;100062.00;5012228;28;20117;-79
2021/08/27 11:09:27;;;;;;;1.42;0.70;;;;;;;16.88;73.45;100063.28;5012514;28;20488;-79
2021/08/27 11:12:13;;;;;;;1.60;0.57;;;;;;;16.61;72.91;100058.09;5003260;28;20128;-79
2021/08/27 11:14:43;;;;;;;1.25;0.63;;;;;;;16.28;76.31;100070.00;5009890;28;20125;-79
2021/08/27 11:17:10;;;;;;;2.55;1.10;;;;;;;16.08;79.69;100070.72;5019373;28;20128;-79
2021/08/27 11:19:37;;;;;;;1.60;0.90;;;;;;;15.85;80.68;100063.56;5012499;28;20022;-79
2021/08/27 11:22:12;;;;;;;1.27;0.65;;;;;;;15.80;79.83;100060.19;5011713;28;20175;-79
2021/08/27 11:25:02;;;;;;;1.75;0.80;;;;;;;15.97;81.57;100068.44;5010892;28;20049;-79
2021/08/27 11:27:27;;;;;;;2.03;0.80;;;;;;;16.18;79.70;100064.13;5008846;28;20425;-79
2021/08/27 11:29:53;;;;;;;5.13;2.10;;;;;;;16.31;80.77;100067.22;5009810;28;20029;-78